createdAt,value
2023-02-13T00:01:54.510Z,103098.19
2023-02-13T00:04:21.162Z,103095.69
2023-02-13T00:06:50.147Z,103099.31
2023-02-13T00:09:16.530Z,103102.94
2023-02-13T00:11:42.833Z,103094.84
2023-02-13T00:14:09.135Z,103093.72
2023-02-13T00:16:35.882Z,103082.25
2023-02-13T00:19:02.259Z,103088.13
2023-02-13T00:21:28.681Z,103089.00
2023-02-13T00:23:55.082Z,103081.72
2023-02-13T00:26:22.623Z,103080.88
2023-02-13T00:28:49.026Z,103078.09
2023-02-13T00:31:17.979Z,103076.75
2023-02-13T00:33:44.919Z,103076.75
2023-02-13T00:36:14.040Z,103083.75
2023-02-13T00:38:42.268Z,103081.25
2023-02-13T00:41:09.738Z,103069.25
2023-02-13T00:43:36.435Z,103076.00
2023-02-13T00:46:03.342Z,103078.78
2023-02-13T00:48:32.075Z,103076.25
2023-02-13T00:50:59.082Z,103071.81
2023-02-13T00:53:26.440Z,103072.94
2023-02-13T00:55:53.722Z,103078.53
2023-02-13T00:58:20.683Z,103080.50
2023-02-13T01:00:47.578Z,103073.78
2023-02-13T01:03:15.543Z,103075.75
2023-02-13T01:05:42.845Z,103080.50
2023-02-13T01:08:10.364Z,103075.19
2023-02-13T01:10:41.733Z,103078.59
2023-02-13T01:13:09.500Z,103071.88
2023-02-13T01:15:36.692Z,103073.84
2023-02-13T01:18:03.686Z,103076.09
2023-02-13T01:20:30.520Z,103076.41
2023-02-13T01:22:57.914Z,103073.91
2023-02-13T01:25:24.628Z,103082.28
2023-02-13T01:27:51.309Z,103073.34
2023-02-13T01:30:18.732Z,103078.13
2023-02-13T01:32:46.876Z,103073.66
2023-02-13T01:35:14.699Z,103077.28
2023-02-13T01:37:42.059Z,103072.84
2023-02-13T01:40:11.822Z,103078.72
2023-02-13T01:42:38.555Z,103076.47
2023-02-13T01:45:25.667Z,103072.59
2023-02-13T01:47:59.668Z,103068.41
2023-02-13T01:50:36.991Z,103068.09
2023-02-13T01:53:12.201Z,103066.44
2023-02-13T01:55:52.466Z,103068.41
2023-02-13T01:58:22.690Z,103071.69
2023-02-13T02:00:50.082Z,103065.28
2023-02-13T02:03:22.421Z,103063.63
2023-02-13T02:05:51.535Z,103064.47
2023-02-13T02:08:19.328Z,103056.09
2023-02-13T02:10:46.075Z,103053.28
2023-02-13T02:13:17.318Z,103051.63
2023-02-13T02:15:43.746Z,103052.16
2023-02-13T02:18:15.871Z,103046.34
2023-02-13T02:21:10.723Z,103053.88
2023-02-13T02:24:05.228Z,103041.88
2023-02-13T02:27:05.673Z,103049.13
2023-02-13T02:30:03.521Z,103040.75
2023-02-13T02:32:51.957Z,103049.69
2023-02-13T02:35:47.640Z,103044.69
2023-02-13T02:38:41.023Z,103049.97
2023-02-13T02:41:37.455Z,103046.88
2023-02-13T02:44:22.737Z,103038.81
2023-02-13T02:47:22.206Z,103039.91
2023-02-13T02:50:02.257Z,103038.81
2023-02-13T02:52:43.718Z,103043.03
2023-02-13T02:55:24.845Z,103034.97
2023-02-13T02:58:32.098Z,103030.50
2023-02-13T03:01:20.233Z,103031.03
2023-02-13T03:04:06.215Z,103018.72
2023-02-13T03:06:40.163Z,103034.13
2023-02-13T03:09:32.136Z,103031.34
2023-02-13T03:12:17.922Z,103038.56
2023-02-13T03:14:45.895Z,103027.41
2023-02-13T03:17:34.352Z,103033.31
2023-02-13T03:20:19.176Z,103029.38
2023-02-13T03:23:20.192Z,103028.31
2023-02-13T03:26:33.406Z,103029.44
2023-02-13T03:29:30.778Z,103031.63
2023-02-13T03:32:14.084Z,103028.81
2023-02-13T03:35:15.307Z,103038.03
2023-02-13T03:37:56.584Z,103031.34
2023-02-13T03:41:07.097Z,103038.34
2023-02-13T03:43:44.932Z,103040.00
2023-02-13T03:46:12.153Z,103041.66
2023-02-13T03:49:00.392Z,103050.31
2023-02-13T03:51:56.173Z,103045.34
2023-02-13T03:54:51.809Z,103049.81
2023-02-13T03:57:39.493Z,103054.25
2023-02-13T04:00:10.006Z,103039.78
2023-02-13T04:02:41.144Z,103049.56
2023-02-13T04:05:17.114Z,103048.19
2023-02-13T04:07:43.759Z,103045.38
2023-02-13T04:10:14.439Z,103047.31
2023-02-13T04:13:02.881Z,103043.19
2023-02-13T04:15:43.744Z,103048.44
2023-02-13T04:18:17.647Z,103044.31
2023-02-13T04:20:44.456Z,103047.63
2023-02-13T04:23:12.685Z,103045.16
2023-02-13T04:25:42.212Z,103050.16
2023-02-13T04:28:08.751Z,103049.06
2023-02-13T04:30:35.188Z,103053.78
2023-02-13T04:33:01.539Z,103052.97
2023-02-13T04:35:28.273Z,103046.56
2023-02-13T04:37:54.638Z,103056.06
2023-02-13T04:40:21.052Z,103055.22
2023-02-13T04:42:49.027Z,103054.97
2023-02-13T04:45:15.978Z,103051.38
2023-02-13T04:47:42.536Z,103050.84
2023-02-13T04:50:09.335Z,103048.31
2023-02-13T04:52:36.002Z,103048.63
2023-02-13T04:55:02.611Z,103049.78
2023-02-13T04:57:29.198Z,103042.81
2023-02-13T04:59:55.822Z,103051.47
2023-02-13T05:02:22.190Z,103047.88
2023-02-13T05:04:48.758Z,103047.03
2023-02-13T05:07:15.187Z,103036.16
2023-02-13T05:09:41.857Z,103045.38
2023-02-13T05:12:08.475Z,103040.91
2023-02-13T05:14:34.978Z,103040.91
2023-02-13T05:17:01.595Z,103045.97
2023-02-13T05:19:28.081Z,103038.41
2023-02-13T05:22:13.029Z,103040.38
2023-02-13T05:24:39.394Z,103039.56
2023-02-13T05:27:05.691Z,103043.16
2023-02-13T05:29:32.309Z,103042.34
2023-02-13T05:32:00.137Z,103041.50
2023-02-13T05:34:28.511Z,103036.75
2023-02-13T05:36:55.084Z,103043.16
2023-02-13T05:39:22.847Z,103039.56
2023-02-13T05:41:49.516Z,103034.81
2023-02-13T05:44:16.744Z,103043.16
2023-02-13T05:46:45.007Z,103040.38
2023-02-13T05:49:13.297Z,103035.63
2023-02-13T05:51:40.111Z,103033.66
2023-02-13T05:54:06.504Z,103034.50
2023-02-13T05:56:32.990Z,103035.31
2023-02-13T05:58:59.674Z,103035.31
2023-02-13T06:01:26.119Z,103035.63
2023-02-13T06:03:52.450Z,103036.47
2023-02-13T06:06:18.892Z,103036.75
2023-02-13T06:08:45.465Z,103032.31
2023-02-13T06:11:12.387Z,103043.47
2023-02-13T06:13:40.658Z,103047.38
2023-02-13T06:16:11.428Z,103048.50
2023-02-13T06:18:37.953Z,103050.16
2023-02-13T06:21:04.496Z,103039.00
2023-02-13T06:23:31.280Z,103045.72
2023-02-13T06:26:02.707Z,103050.78
2023-02-13T06:28:29.347Z,103041.25
2023-02-13T06:30:56.313Z,103044.56
2023-02-13T06:33:23.424Z,103047.38
2023-02-13T06:35:50.040Z,103050.97
2023-02-13T06:38:19.026Z,103048.19
2023-02-13T06:40:49.385Z,103051.28
2023-02-13T06:43:16.798Z,103049.06
2023-02-13T06:45:43.665Z,103050.16
2023-02-13T06:48:10.076Z,103047.38
2023-02-13T06:50:36.424Z,103050.97
2023-02-13T06:53:03.166Z,103047.38
2023-02-13T06:55:29.629Z,103046.53
2023-02-13T06:57:55.978Z,103049.88
2023-02-13T07:00:26.057Z,103049.88
2023-02-13T07:02:52.928Z,103047.91
2023-02-13T07:05:19.407Z,103047.63
2023-02-13T07:07:45.724Z,103047.63
2023-02-13T07:10:14.616Z,103055.16
2023-02-13T07:12:41.187Z,103054.03
2023-02-13T07:15:08.434Z,103056.00
2023-02-13T07:17:35.024Z,103052.38
2023-02-13T07:20:01.905Z,103057.94
2023-02-13T07:22:28.251Z,103065.50
2023-02-13T07:24:54.669Z,103066.31
2023-02-13T07:27:21.042Z,103068.59
2023-02-13T07:29:47.651Z,103064.94
2023-02-13T07:32:14.209Z,103068.03
2023-02-13T07:34:52.224Z,103068.34
2023-02-13T07:37:28.496Z,103070.88
2023-02-13T07:39:54.862Z,103070.03
2023-02-13T07:42:21.367Z,103078.41
2023-02-13T07:44:47.995Z,103073.13
2023-02-13T07:47:14.404Z,103075.94
2023-02-13T07:49:40.850Z,103077.88
2023-02-13T07:52:07.198Z,103078.41
2023-02-13T07:54:33.599Z,103077.28
2023-02-13T07:57:00.043Z,103071.13
2023-02-13T07:59:26.626Z,103074.16
2023-02-13T08:01:53.281Z,103075.22
2023-02-13T08:04:19.725Z,103076.28
2023-02-13T08:06:46.021Z,103077.38
2023-02-13T08:09:39.790Z,103076.78
2023-02-13T08:12:08.816Z,103078.69
2023-02-13T08:14:35.387Z,103083.66
2023-02-13T08:17:02.349Z,103085.34
2023-02-13T08:19:28.720Z,103087.28
2023-02-13T08:21:55.399Z,103084.78
2023-02-13T08:24:22.005Z,103087.59
2023-02-13T08:26:48.422Z,103094.59
2023-02-13T08:29:14.919Z,103091.81
2023-02-13T08:31:41.705Z,103098.22
2023-02-13T08:34:08.704Z,103094.31
2023-02-13T08:36:35.052Z,103095.13
2023-02-13T08:39:01.497Z,103092.03
2023-02-13T08:41:27.915Z,103092.59
2023-02-13T08:43:54.835Z,103089.81
2023-02-13T08:46:21.584Z,103086.69
2023-02-13T08:48:48.222Z,103084.75
2023-02-13T08:51:14.767Z,103081.66
2023-02-13T08:53:42.396Z,103076.66
2023-02-13T08:56:09.667Z,103078.31
2023-02-13T08:58:36.519Z,103077.16
2023-02-13T09:01:07.745Z,103078.31
2023-02-13T09:03:35.476Z,103074.94
2023-02-13T09:06:03.846Z,103081.34
2023-02-13T09:08:30.549Z,103081.84
2023-02-13T09:10:59.805Z,103079.91
2023-02-13T09:13:26.383Z,103080.44
2023-02-13T09:15:52.820Z,103082.09
2023-02-13T09:18:20.157Z,103085.41
2023-02-13T09:20:46.537Z,103084.31
2023-02-13T09:23:12.972Z,103082.03
2023-02-13T09:25:39.281Z,103081.75
2023-02-13T09:28:05.732Z,103081.16
2023-02-13T09:30:32.145Z,103082.53
2023-02-13T09:32:58.485Z,103077.16
2023-02-13T09:35:24.980Z,103081.63
2023-02-13T09:37:51.476Z,103074.91
2023-02-13T09:40:37.012Z,103071.81
2023-02-13T09:43:37.874Z,103085.19
2023-02-13T09:46:13.956Z,103077.56
2023-02-13T09:48:44.967Z,103086.72
2023-02-13T09:51:17.455Z,103082.78
2023-02-13T09:53:52.097Z,103081.66
2023-02-13T09:56:31.605Z,103086.66
2023-02-13T09:59:23.695Z,103080.47
2023-02-13T10:01:52.849Z,103083.72
2023-02-13T10:05:10.266Z,103084.53
2023-02-13T10:07:58.296Z,103084.19
2023-02-13T10:10:33.594Z,103087.72
2023-02-13T10:13:12.247Z,103086.91
2023-02-13T10:16:12.466Z,103084.38
2023-02-13T10:19:30.285Z,103078.22
2023-02-13T10:22:05.662Z,103072.84
2023-02-13T10:24:39.555Z,103082.91
2023-02-13T10:27:21.711Z,103079.28
2023-02-13T10:30:07.129Z,103072.78
2023-02-13T10:32:45.879Z,103087.00
2023-02-13T10:35:27.548Z,103091.13
2023-02-13T10:37:58.377Z,103081.00
2023-02-13T10:40:32.343Z,103082.34
2023-02-13T10:43:04.419Z,103083.13
2023-02-13T10:45:57.243Z,103082.50
2023-02-13T10:48:35.487Z,103079.34
2023-02-13T10:51:18.488Z,103078.72
2023-02-13T10:54:03.254Z,103074.22
2023-02-13T10:56:48.135Z,103067.69
2023-02-13T10:59:43.249Z,103067.38
2023-02-13T11:02:15.421Z,103082.13
2023-02-13T11:04:43.985Z,103060.59
2023-02-13T11:07:17.604Z,103063.06
2023-02-13T11:09:47.760Z,103071.38
2023-02-13T11:12:29.747Z,103072.50
2023-02-13T11:15:05.988Z,103058.75
2023-02-13T11:17:36.584Z,103059.50
2023-02-13T11:20:08.935Z,103058.03
2023-02-13T11:22:39.148Z,103051.81
2023-02-13T11:25:26.381Z,103057.44
2023-02-13T11:28:08.731Z,103048.41
2023-02-13T11:30:37.142Z,103051.63
2023-02-13T11:33:29.472Z,103044.06
2023-02-13T11:36:30.490Z,103043.16
2023-02-13T11:38:58.842Z,103044.69
2023-02-13T11:41:26.089Z,103045.75
2023-02-13T11:44:01.655Z,103041.50
2023-02-13T11:46:49.021Z,103036.94
2023-02-13T11:49:20.689Z,103020.88
2023-02-13T11:51:50.381Z,103032.81
2023-02-13T11:54:34.353Z,103026.06
2023-02-13T11:57:05.474Z,103026.16
2023-02-13T11:59:40.724Z,103033.09
2023-02-13T12:02:18.335Z,103024.09
2023-02-13T12:04:45.899Z,103021.66
2023-02-13T12:07:30.895Z,103018.03
2023-02-13T12:10:02.674Z,103015.97
2023-02-13T12:12:35.602Z,103017.31
2023-02-13T12:15:17.112Z,103008.63
2023-02-13T12:17:46.470Z,103005.72
2023-02-13T12:20:15.706Z,103006.25
2023-02-13T12:23:01.137Z,102986.91
2023-02-13T12:25:33.164Z,102983.19
2023-02-13T12:28:13.738Z,102989.00
2023-02-13T12:31:01.195Z,102973.81
2023-02-13T12:33:58.641Z,102971.22
2023-02-13T12:36:36.404Z,102964.69
2023-02-13T12:39:25.254Z,102971.00
2023-02-13T12:42:03.112Z,102969.22
2023-02-13T12:44:38.560Z,102964.13
2023-02-13T12:47:31.333Z,102965.59
2023-02-13T12:50:37.869Z,102965.59
2023-02-13T12:53:29.676Z,102958.81
2023-02-13T12:55:56.817Z,102951.44
2023-02-13T12:58:44.743Z,102948.16
2023-02-13T13:01:32.091Z,102946.47
2023-02-13T13:04:21.057Z,102947.00
2023-02-13T13:07:24.204Z,102941.06
2023-02-13T13:09:56.920Z,102938.13
2023-02-13T13:12:36.855Z,102934.81
2023-02-13T13:15:31.550Z,102936.16
2023-02-13T13:18:19.219Z,102935.03
2023-02-13T13:21:12.519Z,102935.19
2023-02-13T13:24:05.111Z,102930.59
2023-02-13T13:26:46.731Z,102925.19
2023-02-13T13:29:21.603Z,102919.78
2023-02-13T13:31:57.711Z,102919.13
2023-02-13T13:34:25.993Z,102920.16
2023-02-13T13:37:06.841Z,102912.88
2023-02-13T13:39:52.381Z,102912.06
2023-02-13T13:42:31.522Z,102915.03
2023-02-13T13:45:06.619Z,102905.31
2023-02-13T13:48:06.861Z,102910.91
2023-02-13T13:50:39.027Z,102910.59
2023-02-13T13:53:15.567Z,102910.59
2023-02-13T13:55:48.087Z,102903.66
2023-02-13T13:58:24.941Z,102898.03
2023-02-13T14:01:30.978Z,102903.13
2023-02-13T14:04:00.265Z,102899.69
2023-02-13T14:06:48.169Z,102905.63
2023-02-13T14:09:26.857Z,102906.75
2023-02-13T14:11:55.252Z,102900.84
2023-02-13T14:14:27.835Z,102898.69
2023-02-13T14:16:59.610Z,102908.72
2023-02-13T14:19:32.018Z,102905.44
2023-02-13T14:22:20.189Z,102898.47
2023-02-13T14:25:07.366Z,102894.84
2023-02-13T14:27:38.770Z,102886.97
2023-02-13T14:30:22.929Z,102901.00
2023-02-13T14:32:49.556Z,102891.75
2023-02-13T14:35:29.063Z,102892.06
2023-02-13T14:37:59.310Z,102886.16
2023-02-13T14:40:30.852Z,102885.28
2023-02-13T14:43:19.004Z,102887.28
2023-02-13T14:45:54.334Z,102888.94
2023-02-13T14:48:25.585Z,102879.69
2023-02-13T14:50:54.556Z,102880.53
2023-02-13T14:53:29.141Z,102878.38
2023-02-13T14:56:14.401Z,102879.00
2023-02-13T14:58:49.828Z,102877.88
2023-02-13T15:01:28.287Z,102876.53
2023-02-13T15:03:59.938Z,102868.31
2023-02-13T15:06:29.785Z,102866.31
2023-02-13T15:08:59.393Z,102869.47
2023-02-13T15:11:43.158Z,102869.56
2023-02-13T15:14:22.418Z,102866.25
2023-02-13T15:16:54.923Z,102870.56
2023-02-13T15:19:23.653Z,102858.00
2023-02-13T15:22:01.985Z,102863.41
2023-02-13T15:24:36.890Z,102857.78
2023-02-13T15:27:06.372Z,102853.34
2023-02-13T15:29:47.857Z,102856.16
2023-02-13T15:32:21.630Z,102859.56
2023-02-13T15:34:48.556Z,102857.63
2023-02-13T15:37:27.512Z,102859.09
2023-02-13T15:39:53.977Z,102859.56
2023-02-13T15:42:20.829Z,102856.63
2023-02-13T15:44:50.202Z,102856.09
2023-02-13T15:47:23.418Z,102860.03
2023-02-13T15:49:50.446Z,102858.41
2023-02-13T15:52:31.959Z,102854.91
2023-02-13T15:54:58.967Z,102857.38
2023-02-13T15:57:27.166Z,102856.88
2023-02-13T15:59:55.948Z,102854.69
2023-02-13T16:02:29.541Z,102855.31
2023-02-13T16:04:56.414Z,102854.00
2023-02-13T16:07:22.783Z,102851.00
2023-02-13T16:09:49.196Z,102858.38
2023-02-13T16:12:23.001Z,102859.97
2023-02-13T16:15:00.133Z,102862.56
2023-02-13T16:17:31.142Z,102851.97
2023-02-13T16:20:01.917Z,102850.13
2023-02-13T16:22:39.338Z,102853.38
2023-02-13T16:25:28.616Z,102850.69
2023-02-13T16:28:01.187Z,102846.88
2023-02-13T16:30:27.608Z,102837.44
2023-02-13T16:33:15.134Z,102833.72
2023-02-13T16:35:49.130Z,102837.19
2023-02-13T16:38:39.926Z,102841.53
2023-02-13T16:41:22.068Z,102835.22
2023-02-13T16:43:53.952Z,102836.16
2023-02-13T16:46:32.523Z,102835.25
2023-02-13T16:49:01.654Z,102840.84
2023-02-13T16:51:52.460Z,102845.72
2023-02-13T16:54:26.691Z,102850.38
2023-02-13T16:57:22.972Z,102848.63
2023-02-13T17:00:01.789Z,102852.13
2023-02-13T17:02:30.866Z,102853.03
2023-02-13T17:05:10.140Z,102851.28
2023-02-13T17:07:45.169Z,102855.81
2023-02-13T17:10:33.821Z,102864.94
2023-02-13T17:13:13.777Z,102863.91
2023-02-13T17:15:45.753Z,102865.72
2023-02-13T17:18:12.392Z,102866.66
2023-02-13T17:20:41.795Z,102868.22
2023-02-13T17:23:25.978Z,102876.44
2023-02-13T17:25:54.045Z,102870.13
2023-02-13T17:28:26.739Z,102871.63
2023-02-13T17:30:57.265Z,102870.91
2023-02-13T17:33:25.743Z,102874.91
2023-02-13T17:35:53.216Z,102882.53
2023-02-13T17:38:20.811Z,102880.63
2023-02-13T17:40:47.616Z,102889.94
2023-02-13T17:43:17.033Z,102893.09
2023-02-13T17:45:44.245Z,102890.38
2023-02-13T17:48:10.835Z,102889.91
2023-02-13T17:50:38.141Z,102888.31
2023-02-13T17:53:08.132Z,102889.50
2023-02-13T17:55:35.323Z,102880.06
2023-02-13T17:58:02.632Z,102888.53
2023-02-13T18:00:32.520Z,102878.00
2023-02-13T18:03:00.372Z,102886.44
2023-02-13T18:05:28.275Z,102880.66
2023-02-13T18:07:55.215Z,102874.31
2023-02-13T18:10:26.749Z,102879.94
2023-02-13T18:12:54.434Z,102882.53
2023-02-13T18:15:21.365Z,102883.41
2023-02-13T18:17:48.351Z,102882.34
2023-02-13T18:20:17.825Z,102876.28
2023-02-13T18:22:44.641Z,102885.56
2023-02-13T18:25:11.687Z,102884.75
2023-02-13T18:27:38.293Z,102882.03
2023-02-13T18:30:05.624Z,102885.69
2023-02-13T18:32:32.338Z,102882.97
2023-02-13T18:34:58.896Z,102883.56
2023-02-13T18:37:28.568Z,102888.06
2023-02-13T18:39:55.797Z,102882.56
2023-02-13T18:42:22.485Z,102886.75
2023-02-13T18:44:48.942Z,102887.34
2023-02-13T18:47:15.316Z,102886.78
2023-02-13T18:49:43.257Z,102887.69
2023-02-13T18:52:10.955Z,102887.44
2023-02-13T18:54:37.446Z,102886.91
2023-02-13T18:57:04.192Z,102896.09
2023-02-13T18:59:30.538Z,102892.22
2023-02-13T19:01:56.987Z,102887.25
2023-02-13T19:04:25.140Z,102892.88
2023-02-13T19:06:51.650Z,102887.56
2023-02-13T19:09:18.205Z,102885.41
2023-02-13T19:11:44.845Z,102884.00
2023-02-13T19:14:13.107Z,102880.97
2023-02-13T19:16:40.239Z,102878.78
2023-02-13T19:19:08.553Z,102876.56
2023-02-13T19:21:37.300Z,102875.78
2023-02-13T19:24:05.786Z,102877.47
2023-02-13T19:26:32.104Z,102875.25
2023-02-13T19:28:59.169Z,102870.81
2023-02-13T19:31:29.121Z,102878.69
2023-02-13T19:33:56.961Z,102877.06
2023-02-13T19:36:25.840Z,102864.28
2023-02-13T19:39:00.091Z,102882.44
2023-02-13T19:41:27.142Z,102876.63
2023-02-13T19:43:54.767Z,102877.47
2023-02-13T19:46:25.866Z,102882.25
2023-02-13T19:48:52.652Z,102870.31
2023-02-13T19:51:22.349Z,102877.56
2023-02-13T19:53:48.911Z,102878.94
2023-02-13T19:56:15.290Z,102879.53
2023-02-13T19:58:43.039Z,102868.44
2023-02-13T20:01:15.041Z,102872.09
2023-02-13T20:03:41.933Z,102879.03
2023-02-13T20:06:13.966Z,102882.13
2023-02-13T20:08:42.961Z,102880.19
2023-02-13T20:11:13.732Z,102883.00
2023-02-13T20:13:40.532Z,102878.84
2023-02-13T20:16:09.410Z,102879.13
2023-02-13T20:18:37.243Z,102869.38
2023-02-13T20:21:07.202Z,102873.56
2023-02-13T20:23:34.692Z,102873.88
2023-02-13T20:26:09.067Z,102883.88
2023-02-13T20:28:35.567Z,102886.38
2023-02-13T20:31:03.769Z,102872.19
2023-02-13T20:33:30.840Z,102868.88
2023-02-13T20:35:57.247Z,102880.00
2023-02-13T20:38:23.658Z,102870.56
2023-02-13T20:40:50.132Z,102881.97
2023-02-13T20:43:16.691Z,102878.06
2023-02-13T20:45:43.161Z,102876.69
2023-02-13T20:48:09.744Z,102880.88
2023-02-13T20:50:36.078Z,102875.03
2023-02-13T20:53:02.452Z,102874.50
2023-02-13T20:55:28.751Z,102877.53
2023-02-13T20:57:55.180Z,102885.31
2023-02-13T21:00:21.752Z,102883.94
2023-02-13T21:02:48.380Z,102882.81
2023-02-13T21:05:15.174Z,102873.94
2023-02-13T21:07:41.587Z,102877.00
2023-02-13T21:10:08.286Z,102873.13
2023-02-13T21:12:34.950Z,102874.50
2023-02-13T21:15:01.427Z,102876.75
2023-02-13T21:17:27.801Z,102875.34
2023-02-13T21:19:54.404Z,102877.03
2023-02-13T21:22:20.860Z,102870.09
2023-02-13T21:24:49.818Z,102871.75
2023-02-13T21:27:16.234Z,102878.72
2023-02-13T21:29:42.632Z,102874.81
2023-02-13T21:32:09.142Z,102879.25
2023-02-13T21:34:36.310Z,102880.63
2023-02-13T21:37:02.731Z,102883.97
2023-02-13T21:39:29.311Z,102884.53
2023-02-13T21:41:55.671Z,102883.97
2023-02-13T21:44:22.299Z,102882.03
2023-02-13T21:46:48.702Z,102879.53
2023-02-13T21:49:17.813Z,102886.75
2023-02-13T21:51:45.177Z,102888.94
2023-02-13T21:54:12.118Z,102885.91
2023-02-13T21:56:40.754Z,102884.50
2023-02-13T21:59:07.754Z,102885.88
2023-02-13T22:01:36.631Z,102881.19
2023-02-13T22:04:06.704Z,102877.28
2023-02-13T22:06:35.595Z,102871.75
2023-02-13T22:09:05.831Z,102877.81
2023-02-13T22:11:32.929Z,102879.19
2023-02-13T22:14:02.602Z,102879.75
2023-02-13T22:16:31.153Z,102886.66
2023-02-13T22:18:57.935Z,102875.84
2023-02-13T22:21:26.445Z,102885.00
2023-02-13T22:23:53.069Z,102882.53
2023-02-13T22:26:39.581Z,102884.16
2023-02-13T22:29:08.429Z,102885.81
2023-02-13T22:31:35.944Z,102884.97
2023-02-13T22:34:05.023Z,102891.06
2023-02-13T22:36:34.254Z,102882.47
2023-02-13T22:39:00.822Z,102880.22
2023-02-13T22:41:27.618Z,102879.91
2023-02-13T22:43:54.472Z,102878.25
2023-02-13T22:46:30.070Z,102878.25
2023-02-13T22:48:56.619Z,102879.06
2023-02-13T22:51:26.155Z,102880.47
2023-02-13T22:53:54.632Z,102884.31
2023-02-13T22:56:21.242Z,102868.25
2023-02-13T22:58:47.899Z,102869.06
2023-02-13T23:01:18.123Z,102869.59
2023-02-13T23:03:44.706Z,102864.63
2023-02-13T23:06:12.570Z,102874.31
2023-02-13T23:08:39.066Z,102865.69
2023-02-13T23:11:32.263Z,102869.84
2023-02-13T23:13:59.636Z,102866.50
2023-02-13T23:16:26.683Z,102863.19
2023-02-13T23:18:54.824Z,102860.94
2023-02-13T23:21:21.439Z,102863.16
2023-02-13T23:23:48.339Z,102861.19
2023-02-13T23:26:16.156Z,102855.94
2023-02-13T23:28:42.731Z,102863.38
2023-02-13T23:31:09.271Z,102862.84
2023-02-13T23:33:35.738Z,102869.75
2023-02-13T23:36:02.241Z,102876.38
2023-02-13T23:38:29.597Z,102878.88
2023-02-13T23:40:56.051Z,102867.50
2023-02-13T23:43:22.651Z,102861.94
2023-02-13T23:45:49.747Z,102866.06
2023-02-13T23:48:16.133Z,102855.53
2023-02-13T23:50:42.493Z,102858.84
2023-02-13T23:53:09.109Z,102862.94
2023-02-13T23:55:35.744Z,102854.09
2023-02-13T23:58:02.309Z,102856.03
